Omaha, Nebraska
Current Conditions -  °F | °C
As of 5:52 PM on Friday 28 Nov 2014 (Local Time) from KOMA Reporting Station
Broken Clouds Broken Clouds  
Wind Chill:   Ceiling: 25000
Heat Index:   Visibility: 10mi
Dew Point: -1°   Wind: 8mph
Humidity: 62%   Direction: 130°SE
Pressure: 29.7"   Gusts: NA
Location:  41.26°N, 95.94°W
Report Text: KOMA 282352Z 13007KT 10SM BKN250 06/M01 A2970 RMK AO2 SLP063 T00561011 10111 20050 55005
Loading
Personal Weather Stations






























Interactive Weather Map New forecast layout! Learn more

10-Day Weather Forecast

Advertisements
Track Severe Weather on mobile